sensor_id;sensor_type;location;lat;lon;timestamp;temperature;humidity
63219;DHT22;49320;52.512;13.448;2023-02-26T00:01:36;3.40;83.00
63219;DHT22;49320;52.512;13.448;2023-02-26T00:04:06;3.40;83.00
63219;DHT22;49320;52.512;13.448;2023-02-26T00:06:35;3.40;83.30
63219;DHT22;49320;52.512;13.448;2023-02-26T00:09:04;3.30;82.90
63219;DHT22;49320;52.512;13.448;2023-02-26T00:11:32;3.40;83.00
63219;DHT22;49320;52.512;13.448;2023-02-26T00:13:59;3.40;82.80
63219;DHT22;49320;52.512;13.448;2023-02-26T00:16:30;3.40;82.80
63219;DHT22;49320;52.512;13.448;2023-02-26T00:19:04;3.40;82.20
63219;DHT22;49320;52.512;13.448;2023-02-26T00:21:34;4.50;83.60
63219;DHT22;49320;52.512;13.448;2023-02-26T00:24:01;3.40;82.70
63219;DHT22;49320;52.512;13.448;2023-02-26T00:26:29;3.40;82.80
63219;DHT22;49320;52.512;13.448;2023-02-26T00:28:57;3.40;83.00
63219;DHT22;49320;52.512;13.448;2023-02-26T00:31:25;3.40;83.00
63219;DHT22;49320;52.512;13.448;2023-02-26T00:33:54;3.40;83.00
63219;DHT22;49320;52.512;13.448;2023-02-26T00:39:36;3.40;83.00
63219;DHT22;49320;52.512;13.448;2023-02-26T00:42:12;3.50;83.00
63219;DHT22;49320;52.512;13.448;2023-02-26T00:44:40;3.50;82.80
63219;DHT22;49320;52.512;13.448;2023-02-26T00:47:24;3.50;82.70
63219;DHT22;49320;52.512;13.448;2023-02-26T00:50:16;3.50;82.60
63219;DHT22;49320;52.512;13.448;2023-02-26T00:55:45;3.50;82.30
63219;DHT22;49320;52.512;13.448;2023-02-26T00:58:12;4.30;82.60
63219;DHT22;49320;52.512;13.448;2023-02-26T01:00:38;3.50;82.20
63219;DHT22;49320;52.512;13.448;2023-02-26T01:03:05;3.50;82.30
63219;DHT22;49320;52.512;13.448;2023-02-26T01:05:33;3.50;81.60
63219;DHT22;49320;52.512;13.448;2023-02-26T01:08:04;3.60;82.40
63219;DHT22;49320;52.512;13.448;2023-02-26T01:10:34;3.60;82.20
63219;DHT22;49320;52.512;13.448;2023-02-26T01:13:01;3.60;82.10
63219;DHT22;49320;52.512;13.448;2023-02-26T01:15:29;3.60;82.00
63219;DHT22;49320;52.512;13.448;2023-02-26T01:18:12;3.60;81.90
63219;DHT22;49320;52.512;13.448;2023-02-26T01:20:57;3.70;81.90
63219;DHT22;49320;52.512;13.448;2023-02-26T01:23:32;3.60;81.90
63219;DHT22;49320;52.512;13.448;2023-02-26T01:26:10;3.50;81.80
63219;DHT22;49320;52.512;13.448;2023-02-26T01:28:43;3.70;81.80
63219;DHT22;49320;52.512;13.448;2023-02-26T01:31:22;3.70;81.80
63219;DHT22;49320;52.512;13.448;2023-02-26T01:34:04;3.70;81.70
63219;DHT22;49320;52.512;13.448;2023-02-26T01:40:33;3.70;81.30
63219;DHT22;49320;52.512;13.448;2023-02-26T01:43:11;3.70;81.30
63219;DHT22;49320;52.512;13.448;2023-02-26T01:46:13;3.70;81.30
63219;DHT22;49320;52.512;13.448;2023-02-26T01:48:54;3.70;81.30
63219;DHT22;49320;52.512;13.448;2023-02-26T01:51:43;3.80;80.40
63219;DHT22;49320;52.512;13.448;2023-02-26T01:54:14;3.80;81.00
63219;DHT22;49320;52.512;13.448;2023-02-26T01:56:48;3.80;80.90
63219;DHT22;49320;52.512;13.448;2023-02-26T01:59:18;3.80;80.20
63219;DHT22;49320;52.512;13.448;2023-02-26T02:01:55;3.80;80.70
63219;DHT22;49320;52.512;13.448;2023-02-26T02:04:24;3.80;80.10
63219;DHT22;49320;52.512;13.448;2023-02-26T02:06:53;3.80;80.70
63219;DHT22;49320;52.512;13.448;2023-02-26T02:09:21;3.80;80.60
63219;DHT22;49320;52.512;13.448;2023-02-26T02:17:56;3.80;80.50
63219;DHT22;49320;52.512;13.448;2023-02-26T02:21:01;3.90;79.80
63219;DHT22;49320;52.512;13.448;2023-02-26T02:27:01;3.90;79.80
63219;DHT22;49320;52.512;13.448;2023-02-26T02:29:44;3.90;79.60
63219;DHT22;49320;52.512;13.448;2023-02-26T02:32:45;3.90;78.80
63219;DHT22;49320;52.512;13.448;2023-02-26T02:35:30;3.90;79.60
63219;DHT22;49320;52.512;13.448;2023-02-26T02:38:19;3.90;79.30
63219;DHT22;49320;52.512;13.448;2023-02-26T02:41:13;3.90;79.20
63219;DHT22;49320;52.512;13.448;2023-02-26T02:43:45;3.90;79.30
63219;DHT22;49320;52.512;13.448;2023-02-26T02:46:18;3.90;79.50
63219;DHT22;49320;52.512;13.448;2023-02-26T02:48:58;3.90;79.50
63219;DHT22;49320;52.512;13.448;2023-02-26T02:51:42;3.90;78.50
63219;DHT22;49320;52.512;13.448;2023-02-26T02:54:23;3.90;79.30
63219;DHT22;49320;52.512;13.448;2023-02-26T02:59:44;3.90;78.90
63219;DHT22;49320;52.512;13.448;2023-02-26T03:04:54;3.90;78.60
63219;DHT22;49320;52.512;13.448;2023-02-26T03:07:20;3.90;78.90
63219;DHT22;49320;52.512;13.448;2023-02-26T03:09:47;3.90;78.80
63219;DHT22;49320;52.512;13.448;2023-02-26T03:12:15;3.90;78.80
63219;DHT22;49320;52.512;13.448;2023-02-26T03:14:42;3.90;78.80
63219;DHT22;49320;52.512;13.448;2023-02-26T03:17:32;3.90;78.80
63219;DHT22;49320;52.512;13.448;2023-02-26T03:20:20;4.30;79.00
63219;DHT22;49320;52.512;13.448;2023-02-26T03:23:13;3.90;78.60
63219;DHT22;49320;52.512;13.448;2023-02-26T03:25:53;3.90;78.30
63219;DHT22;49320;52.512;13.448;2023-02-26T03:28:55;3.90;78.60
63219;DHT22;49320;52.512;13.448;2023-02-26T03:31:52;3.90;78.30
63219;DHT22;49320;52.512;13.448;2023-02-26T03:34:40;3.90;78.30
63219;DHT22;49320;52.512;13.448;2023-02-26T03:37:19;3.90;78.30
63219;DHT22;49320;52.512;13.448;2023-02-26T03:39:54;3.90;78.70
63219;DHT22;49320;52.512;13.448;2023-02-26T03:42:29;3.90;78.60
63219;DHT22;49320;52.512;13.448;2023-02-26T03:45:06;3.90;78.40
63219;DHT22;49320;52.512;13.448;2023-02-26T03:47:39;3.90;78.40
63219;DHT22;49320;52.512;13.448;2023-02-26T03:50:12;3.90;78.50
63219;DHT22;49320;52.512;13.448;2023-02-26T03:52:48;3.90;77.70
63219;DHT22;49320;52.512;13.448;2023-02-26T03:55:35;3.80;78.20
63219;DHT22;49320;52.512;13.448;2023-02-26T03:58:06;3.90;78.30
63219;DHT22;49320;52.512;13.448;2023-02-26T04:00:36;3.80;78.30
63219;DHT22;49320;52.512;13.448;2023-02-26T04:06:01;3.80;78.30
63219;DHT22;49320;52.512;13.448;2023-02-26T04:08:29;3.80;78.40
63219;DHT22;49320;52.512;13.448;2023-02-26T04:10:59;3.80;78.20
63219;DHT22;49320;52.512;13.448;2023-02-26T04:13:32;3.80;78.30
63219;DHT22;49320;52.512;13.448;2023-02-26T04:15:59;3.80;78.40
63219;DHT22;49320;52.512;13.448;2023-02-26T04:18:26;3.80;78.10
63219;DHT22;49320;52.512;13.448;2023-02-26T04:23:20;3.80;77.60
63219;DHT22;49320;52.512;13.448;2023-02-26T04:25:47;3.80;78.20
63219;DHT22;49320;52.512;13.448;2023-02-26T04:28:14;3.80;78.20
63219;DHT22;49320;52.512;13.448;2023-02-26T04:30:41;3.80;77.40
63219;DHT22;49320;52.512;13.448;2023-02-26T04:33:07;3.80;78.20
63219;DHT22;49320;52.512;13.448;2023-02-26T04:35:34;3.70;78.10
63219;DHT22;49320;52.512;13.448;2023-02-26T04:38:01;3.70;78.00
63219;DHT22;49320;52.512;13.448;2023-02-26T04:40:28;3.70;78.00
63219;DHT22;49320;52.512;13.448;2023-02-26T04:42:55;3.70;77.90
63219;DHT22;49320;52.512;13.448;2023-02-26T04:45:22;3.90;78.20
63219;DHT22;49320;52.512;13.448;2023-02-26T04:47:49;3.70;77.90
63219;DHT22;49320;52.512;13.448;2023-02-26T04:50:15;3.70;78.00
63219;DHT22;49320;52.512;13.448;2023-02-26T04:52:42;3.70;77.20
63219;DHT22;49320;52.512;13.448;2023-02-26T04:55:09;3.70;78.10
63219;DHT22;49320;52.512;13.448;2023-02-26T05:02:33;3.80;77.10
63219;DHT22;49320;52.512;13.448;2023-02-26T05:05:00;3.80;77.60
63219;DHT22;49320;52.512;13.448;2023-02-26T05:07:27;3.80;77.30
63219;DHT22;49320;52.512;13.448;2023-02-26T05:09:54;3.80;77.30
63219;DHT22;49320;52.512;13.448;2023-02-26T05:12:21;3.80;77.20
63219;DHT22;49320;52.512;13.448;2023-02-26T05:14:48;3.90;77.40
63219;DHT22;49320;52.512;13.448;2023-02-26T05:17:14;3.80;77.10
63219;DHT22;49320;52.512;13.448;2023-02-26T05:19:41;3.80;76.90
63219;DHT22;49320;52.512;13.448;2023-02-26T05:22:08;1.60;75.40
63219;DHT22;49320;52.512;13.448;2023-02-26T05:24:35;3.80;76.90
63219;DHT22;49320;52.512;13.448;2023-02-26T05:27:02;3.80;76.00
63219;DHT22;49320;52.512;13.448;2023-02-26T05:29:29;3.80;76.90
63219;DHT22;49320;52.512;13.448;2023-02-26T05:31:56;3.80;76.20
63219;DHT22;49320;52.512;13.448;2023-02-26T05:34:23;3.90;76.50
63219;DHT22;49320;52.512;13.448;2023-02-26T05:36:50;3.80;76.30
63219;DHT22;49320;52.512;13.448;2023-02-26T05:39:16;3.90;76.60
63219;DHT22;49320;52.512;13.448;2023-02-26T05:41:43;3.90;76.70
63219;DHT22;49320;52.512;13.448;2023-02-26T05:44:12;3.90;76.50
63219;DHT22;49320;52.512;13.448;2023-02-26T05:46:39;3.90;75.60
63219;DHT22;49320;52.512;13.448;2023-02-26T05:49:06;3.90;76.50
63219;DHT22;49320;52.512;13.448;2023-02-26T05:51:32;3.90;75.70
63219;DHT22;49320;52.512;13.448;2023-02-26T05:53:59;3.90;77.00
63219;DHT22;49320;52.512;13.448;2023-02-26T05:56:26;4.00;75.90
63219;DHT22;49320;52.512;13.448;2023-02-26T05:58:53;3.90;75.90
63219;DHT22;49320;52.512;13.448;2023-02-26T06:01:20;3.90;75.70
63219;DHT22;49320;52.512;13.448;2023-02-26T06:03:47;4.00;75.70
63219;DHT22;49320;52.512;13.448;2023-02-26T06:06:14;3.90;75.60
63219;DHT22;49320;52.512;13.448;2023-02-26T06:08:44;4.00;75.60
63219;DHT22;49320;52.512;13.448;2023-02-26T06:11:11;4.00;75.70
63219;DHT22;49320;52.512;13.448;2023-02-26T06:13:38;4.00;75.40
63219;DHT22;49320;52.512;13.448;2023-02-26T06:16:05;4.00;74.10
63219;DHT22;49320;52.512;13.448;2023-02-26T06:18:32;4.00;75.10
63219;DHT22;49320;52.512;13.448;2023-02-26T06:21:00;4.00;75.30
63219;DHT22;49320;52.512;13.448;2023-02-26T06:25:54;4.00;74.20
63219;DHT22;49320;52.512;13.448;2023-02-26T06:28:21;4.00;74.60
63219;DHT22;49320;52.512;13.448;2023-02-26T06:30:51;3.90;74.70
63219;DHT22;49320;52.512;13.448;2023-02-26T06:33:20;4.00;74.60
63219;DHT22;49320;52.512;13.448;2023-02-26T06:35:47;4.00;73.90
63219;DHT22;49320;52.512;13.448;2023-02-26T06:38:14;4.00;73.90
63219;DHT22;49320;52.512;13.448;2023-02-26T06:40:42;3.90;74.10
63219;DHT22;49320;52.512;13.448;2023-02-26T06:43:09;4.00;73.80
63219;DHT22;49320;52.512;13.448;2023-02-26T06:45:36;4.00;73.90
63219;DHT22;49320;52.512;13.448;2023-02-26T06:48:04;4.00;74.20
63219;DHT22;49320;52.512;13.448;2023-02-26T06:50:31;4.30;74.50
63219;DHT22;49320;52.512;13.448;2023-02-26T06:52:58;4.10;74.40
63219;DHT22;49320;52.512;13.448;2023-02-26T06:55:25;4.10;73.40
63219;DHT22;49320;52.512;13.448;2023-02-26T06:57:55;4.10;74.10
63219;DHT22;49320;52.512;13.448;2023-02-26T07:00:24;2.70;72.70
63219;DHT22;49320;52.512;13.448;2023-02-26T07:02:52;4.10;73.70
63219;DHT22;49320;52.512;13.448;2023-02-26T07:05:19;4.10;73.30
63219;DHT22;49320;52.512;13.448;2023-02-26T07:07:46;4.10;73.40
63219;DHT22;49320;52.512;13.448;2023-02-26T07:10:12;4.10;73.50
63219;DHT22;49320;52.512;13.448;2023-02-26T07:12:39;4.20;73.70
63219;DHT22;49320;52.512;13.448;2023-02-26T07:15:06;4.20;73.30
63219;DHT22;49320;52.512;13.448;2023-02-26T07:17:34;4.20;73.10
63219;DHT22;49320;52.512;13.448;2023-02-26T07:20:00;4.20;73.30
63219;DHT22;49320;52.512;13.448;2023-02-26T07:22:31;4.30;73.00
63219;DHT22;49320;52.512;13.448;2023-02-26T07:24:59;4.30;72.80
63219;DHT22;49320;52.512;13.448;2023-02-26T07:27:26;4.30;73.40
63219;DHT22;49320;52.512;13.448;2023-02-26T07:29:53;4.30;72.50
63219;DHT22;49320;52.512;13.448;2023-02-26T07:32:20;4.30;72.10
63219;DHT22;49320;52.512;13.448;2023-02-26T07:34:47;4.30;72.70
63219;DHT22;49320;52.512;13.448;2023-02-26T07:37:14;4.30;71.70
63219;DHT22;49320;52.512;13.448;2023-02-26T07:39:41;4.30;72.50
63219;DHT22;49320;52.512;13.448;2023-02-26T07:42:08;4.30;72.40
63219;DHT22;49320;52.512;13.448;2023-02-26T07:44:35;4.30;72.60
63219;DHT22;49320;52.512;13.448;2023-02-26T07:47:02;4.20;72.50
63219;DHT22;49320;52.512;13.448;2023-02-26T07:49:29;4.20;72.60
63219;DHT22;49320;52.512;13.448;2023-02-26T07:51:58;4.20;71.30
63219;DHT22;49320;52.512;13.448;2023-02-26T07:54:25;4.20;72.50
63219;DHT22;49320;52.512;13.448;2023-02-26T07:59:19;4.20;71.80
63219;DHT22;49320;52.512;13.448;2023-02-26T08:01:46;4.20;72.60
63219;DHT22;49320;52.512;13.448;2023-02-26T08:04:13;4.30;72.50
63219;DHT22;49320;52.512;13.448;2023-02-26T08:09:08;4.30;71.50
63219;DHT22;49320;52.512;13.448;2023-02-26T08:11:34;4.20;71.60
63219;DHT22;49320;52.512;13.448;2023-02-26T08:14:06;4.30;71.90
63219;DHT22;49320;52.512;13.448;2023-02-26T08:16:33;4.30;71.40
63219;DHT22;49320;52.512;13.448;2023-02-26T08:18:59;4.20;71.20
63219;DHT22;49320;52.512;13.448;2023-02-26T08:21:26;4.30;71.50
63219;DHT22;49320;52.512;13.448;2023-02-26T08:23:53;4.30;71.30
63219;DHT22;49320;52.512;13.448;2023-02-26T08:26:20;4.10;71.40
63219;DHT22;49320;52.512;13.448;2023-02-26T08:28:47;4.30;71.50
63219;DHT22;49320;52.512;13.448;2023-02-26T08:31:15;4.30;71.80
63219;DHT22;49320;52.512;13.448;2023-02-26T08:33:43;4.30;70.80
63219;DHT22;49320;52.512;13.448;2023-02-26T08:36:10;4.20;71.30
63219;DHT22;49320;52.512;13.448;2023-02-26T08:38:37;4.30;71.00
63219;DHT22;49320;52.512;13.448;2023-02-26T08:41:05;4.30;72.20
63219;DHT22;49320;52.512;13.448;2023-02-26T08:43:31;4.20;70.90
63219;DHT22;49320;52.512;13.448;2023-02-26T08:45:58;4.40;71.00
63219;DHT22;49320;52.512;13.448;2023-02-26T08:48:26;4.40;71.10
63219;DHT22;49320;52.512;13.448;2023-02-26T08:50:52;4.40;69.80
63219;DHT22;49320;52.512;13.448;2023-02-26T08:53:19;4.40;70.90
63219;DHT22;49320;52.512;13.448;2023-02-26T08:55:48;4.40;68.90
63219;DHT22;49320;52.512;13.448;2023-02-26T08:58:15;4.40;70.40
63219;DHT22;49320;52.512;13.448;2023-02-26T09:00:43;4.40;69.80
63219;DHT22;49320;52.512;13.448;2023-02-26T09:03:10;4.40;70.80
63219;DHT22;49320;52.512;13.448;2023-02-26T09:05:37;4.50;70.80
63219;DHT22;49320;52.512;13.448;2023-02-26T09:08:04;4.50;70.70
63219;DHT22;49320;52.512;13.448;2023-02-26T09:10:31;4.50;69.10
63219;DHT22;49320;52.512;13.448;2023-02-26T09:12:58;4.50;70.40
63219;DHT22;49320;52.512;13.448;2023-02-26T09:17:52;4.60;70.00
63219;DHT22;49320;52.512;13.448;2023-02-26T09:20:18;4.60;69.40
63219;DHT22;49320;52.512;13.448;2023-02-26T09:22:45;4.50;69.20
63219;DHT22;49320;52.512;13.448;2023-02-26T09:25:12;4.70;69.60
63219;DHT22;49320;52.512;13.448;2023-02-26T09:27:41;4.70;70.00
63219;DHT22;49320;52.512;13.448;2023-02-26T09:30:08;4.80;69.90
63219;DHT22;49320;52.512;13.448;2023-02-26T09:32:35;4.80;70.30
63219;DHT22;49320;52.512;13.448;2023-02-26T09:35:04;4.90;69.60
63219;DHT22;49320;52.512;13.448;2023-02-26T09:37:31;4.90;70.20
63219;DHT22;49320;52.512;13.448;2023-02-26T09:39:57;4.30;69.10
63219;DHT22;49320;52.512;13.448;2023-02-26T09:45:38;5.10;67.40
63219;DHT22;49320;52.512;13.448;2023-02-26T09:48:13;5.10;68.00
63219;DHT22;49320;52.512;13.448;2023-02-26T09:50:47;5.10;66.20
63219;DHT22;49320;52.512;13.448;2023-02-26T09:53:20;5.10;67.60
63219;DHT22;49320;52.512;13.448;2023-02-26T09:55:54;5.10;67.00
63219;DHT22;49320;52.512;13.448;2023-02-26T09:58:30;5.10;67.50
63219;DHT22;49320;52.512;13.448;2023-02-26T10:07:01;5.20;66.70
63219;DHT22;49320;52.512;13.448;2023-02-26T10:12:42;5.30;66.30
63219;DHT22;49320;52.512;13.448;2023-02-26T10:18:07;5.40;66.30
63219;DHT22;49320;52.512;13.448;2023-02-26T10:20:52;5.60;66.00
63219;DHT22;49320;52.512;13.448;2023-02-26T10:23:38;5.50;65.40
63219;DHT22;49320;52.512;13.448;2023-02-26T10:32:01;5.50;64.90
63219;DHT22;49320;52.512;13.448;2023-02-26T10:34:58;5.50;64.70
63219;DHT22;49320;52.512;13.448;2023-02-26T10:37:56;5.60;64.10
63219;DHT22;49320;52.512;13.448;2023-02-26T10:40:43;5.70;63.90
63219;DHT22;49320;52.512;13.448;2023-02-26T10:43:20;5.70;63.90
63219;DHT22;49320;52.512;13.448;2023-02-26T10:46:20;5.90;65.80
63219;DHT22;49320;52.512;13.448;2023-02-26T10:49:13;5.80;62.70
63219;DHT22;49320;52.512;13.448;2023-02-26T10:51:55;5.80;63.20
63219;DHT22;49320;52.512;13.448;2023-02-26T10:54:35;5.90;63.20
63219;DHT22;49320;52.512;13.448;2023-02-26T10:57:16;5.80;64.40
63219;DHT22;49320;52.512;13.448;2023-02-26T10:59:48;6.00;63.70
63219;DHT22;49320;52.512;13.448;2023-02-26T11:02:36;6.00;63.60
63219;DHT22;49320;52.512;13.448;2023-02-26T11:05:12;6.00;63.40
63219;DHT22;49320;52.512;13.448;2023-02-26T11:07:45;6.00;62.20
63219;DHT22;49320;52.512;13.448;2023-02-26T11:10:24;6.10;61.50
63219;DHT22;49320;52.512;13.448;2023-02-26T11:12:57;6.20;61.70
63219;DHT22;49320;52.512;13.448;2023-02-26T11:15:25;6.20;62.70
63219;DHT22;49320;52.512;13.448;2023-02-26T11:17:56;6.20;62.00
63219;DHT22;49320;52.512;13.448;2023-02-26T11:20:32;6.30;62.30
63219;DHT22;49320;52.512;13.448;2023-02-26T11:23:06;6.40;59.90
63219;DHT22;49320;52.512;13.448;2023-02-26T11:25:39;6.50;60.40
63219;DHT22;49320;52.512;13.448;2023-02-26T11:30:46;6.50;60.50
63219;DHT22;49320;52.512;13.448;2023-02-26T11:33:31;6.60;60.70
63219;DHT22;49320;52.512;13.448;2023-02-26T11:36:13;6.60;58.60
63219;DHT22;49320;52.512;13.448;2023-02-26T11:38:44;6.60;58.50
63219;DHT22;49320;52.512;13.448;2023-02-26T11:41:13;6.70;60.30
63219;DHT22;49320;52.512;13.448;2023-02-26T11:43:42;6.60;59.10
63219;DHT22;49320;52.512;13.448;2023-02-26T11:46:12;6.70;60.00
63219;DHT22;49320;52.512;13.448;2023-02-26T11:48:47;6.80;60.00
63219;DHT22;49320;52.512;13.448;2023-02-26T11:51:19;6.80;57.80
63219;DHT22;49320;52.512;13.448;2023-02-26T11:53:55;6.90;59.00
63219;DHT22;49320;52.512;13.448;2023-02-26T11:56:36;6.90;57.90
63219;DHT22;49320;52.512;13.448;2023-02-26T11:59:16;6.90;58.30
63219;DHT22;49320;52.512;13.448;2023-02-26T12:01:46;7.00;58.70
63219;DHT22;49320;52.512;13.448;2023-02-26T12:04:22;7.00;59.00
63219;DHT22;49320;52.512;13.448;2023-02-26T12:06:54;7.00;58.20
63219;DHT22;49320;52.512;13.448;2023-02-26T12:09:23;7.00;59.20
63219;DHT22;49320;52.512;13.448;2023-02-26T12:12:00;7.10;57.10
63219;DHT22;49320;52.512;13.448;2023-02-26T12:20:53;7.00;57.70
63219;DHT22;49320;52.512;13.448;2023-02-26T12:23:55;7.00;58.40
63219;DHT22;49320;52.512;13.448;2023-02-26T12:38:18;7.10;57.80
63219;DHT22;49320;52.512;13.448;2023-02-26T12:44:49;7.00;56.90
63219;DHT22;49320;52.512;13.448;2023-02-26T12:47:49;7.00;57.00
63219;DHT22;49320;52.512;13.448;2023-02-26T12:51:13;7.00;57.20
63219;DHT22;49320;52.512;13.448;2023-02-26T13:00:02;7.10;57.50
63219;DHT22;49320;52.512;13.448;2023-02-26T13:02:57;7.10;56.50
63219;DHT22;49320;52.512;13.448;2023-02-26T13:09:23;7.10;56.10
63219;DHT22;49320;52.512;13.448;2023-02-26T13:12:14;7.10;56.10
63219;DHT22;49320;52.512;13.448;2023-02-26T13:17:59;7.00;56.90
63219;DHT22;49320;52.512;13.448;2023-02-26T13:20:33;7.10;57.30
63219;DHT22;49320;52.512;13.448;2023-02-26T13:23:10;7.20;56.00
63219;DHT22;49320;52.512;13.448;2023-02-26T13:25:49;8.60;56.90
63219;DHT22;49320;52.512;13.448;2023-02-26T13:32:04;7.20;55.10
63219;DHT22;49320;52.512;13.448;2023-02-26T13:51:38;7.00;54.60
63219;DHT22;49320;52.512;13.448;2023-02-26T13:54:43;7.00;55.90
63219;DHT22;49320;52.512;13.448;2023-02-26T14:00:27;6.90;55.80
63219;DHT22;49320;52.512;13.448;2023-02-26T14:16:39;6.70;54.90
63219;DHT22;49320;52.512;13.448;2023-02-26T14:19:26;6.80;56.30
63219;DHT22;49320;52.512;13.448;2023-02-26T14:22:32;6.90;55.70
63219;DHT22;49320;52.512;13.448;2023-02-26T14:25:17;6.90;55.50
63219;DHT22;49320;52.512;13.448;2023-02-26T14:27:48;7.00;56.10
63219;DHT22;49320;52.512;13.448;2023-02-26T14:30:28;7.00;56.00
63219;DHT22;49320;52.512;13.448;2023-02-26T14:35:27;7.10;56.50
63219;DHT22;49320;52.512;13.448;2023-02-26T14:38:01;7.10;56.10
63219;DHT22;49320;52.512;13.448;2023-02-26T14:40:37;7.10;55.60
63219;DHT22;49320;52.512;13.448;2023-02-26T14:43:21;7.10;55.30
63219;DHT22;49320;52.512;13.448;2023-02-26T14:46:02;7.10;54.30
63219;DHT22;49320;52.512;13.448;2023-02-26T14:48:32;7.10;54.20
63219;DHT22;49320;52.512;13.448;2023-02-26T14:51:29;7.10;54.20
63219;DHT22;49320;52.512;13.448;2023-02-26T14:54:33;7.10;54.80
63219;DHT22;49320;52.512;13.448;2023-02-26T14:57:32;7.10;54.90
63219;DHT22;49320;52.512;13.448;2023-02-26T15:00:41;7.00;53.80
63219;DHT22;49320;52.512;13.448;2023-02-26T15:03:34;7.00;55.10
63219;DHT22;49320;52.512;13.448;2023-02-26T15:12:57;6.80;53.70
63219;DHT22;49320;52.512;13.448;2023-02-26T15:18:44;6.80;54.40
63219;DHT22;49320;52.512;13.448;2023-02-26T15:24:15;6.80;54.40
63219;DHT22;49320;52.512;13.448;2023-02-26T15:26:49;6.80;55.20
63219;DHT22;49320;52.512;13.448;2023-02-26T15:29:23;6.80;54.50
63219;DHT22;49320;52.512;13.448;2023-02-26T15:31:57;6.90;53.80
63219;DHT22;49320;52.512;13.448;2023-02-26T15:34:30;6.90;55.20
63219;DHT22;49320;52.512;13.448;2023-02-26T15:36:59;6.80;55.00
63219;DHT22;49320;52.512;13.448;2023-02-26T15:39:26;6.90;54.60
63219;DHT22;49320;52.512;13.448;2023-02-26T15:41:54;7.00;53.20
63219;DHT22;49320;52.512;13.448;2023-02-26T15:44:26;7.00;54.00
63219;DHT22;49320;52.512;13.448;2023-02-26T15:46:59;6.90;52.20
63219;DHT22;49320;52.512;13.448;2023-02-26T15:49:39;6.90;54.20
63219;DHT22;49320;52.512;13.448;2023-02-26T15:52:13;6.80;53.60
63219;DHT22;49320;52.512;13.448;2023-02-26T15:54:54;6.80;54.00
63219;DHT22;49320;52.512;13.448;2023-02-26T15:57:26;6.80;53.70
63219;DHT22;49320;52.512;13.448;2023-02-26T16:00:00;6.50;54.20
63219;DHT22;49320;52.512;13.448;2023-02-26T16:02:42;6.60;54.30
63219;DHT22;49320;52.512;13.448;2023-02-26T16:05:12;6.60;54.00
63219;DHT22;49320;52.512;13.448;2023-02-26T16:07:41;6.60;54.90
63219;DHT22;49320;52.512;13.448;2023-02-26T16:10:28;6.50;54.60
63219;DHT22;49320;52.512;13.448;2023-02-26T16:13:00;6.50;54.70
63219;DHT22;49320;52.512;13.448;2023-02-26T16:15:32;6.50;54.90
63219;DHT22;49320;52.512;13.448;2023-02-26T16:18:08;6.40;55.00
63219;DHT22;49320;52.512;13.448;2023-02-26T16:20:47;6.20;55.00
63219;DHT22;49320;52.512;13.448;2023-02-26T16:23:17;6.30;55.20
63219;DHT22;49320;52.512;13.448;2023-02-26T16:26:00;6.40;55.80
63219;DHT22;49320;52.512;13.448;2023-02-26T16:28:31;6.20;55.60
63219;DHT22;49320;52.512;13.448;2023-02-26T16:31:04;6.10;54.70
63219;DHT22;49320;52.512;13.448;2023-02-26T16:33:33;6.10;55.60
63219;DHT22;49320;52.512;13.448;2023-02-26T16:36:13;6.10;55.80
63219;DHT22;49320;52.512;13.448;2023-02-26T16:41:11;6.00;54.90
63219;DHT22;49320;52.512;13.448;2023-02-26T16:46:22;6.00;55.80
63219;DHT22;49320;52.512;13.448;2023-02-26T16:49:23;5.70;56.00
63219;DHT22;49320;52.512;13.448;2023-02-26T16:51:53;5.90;56.00
63219;DHT22;49320;52.512;13.448;2023-02-26T16:54:35;5.80;55.60
63219;DHT22;49320;52.512;13.448;2023-02-26T16:57:17;5.80;56.10
63219;DHT22;49320;52.512;13.448;2023-02-26T16:59:50;5.80;56.40
63219;DHT22;49320;52.512;13.448;2023-02-26T17:02:25;5.80;56.60
63219;DHT22;49320;52.512;13.448;2023-02-26T17:04:59;5.80;56.60
63219;DHT22;49320;52.512;13.448;2023-02-26T17:07:34;5.70;56.60
63219;DHT22;49320;52.512;13.448;2023-02-26T17:11:02;5.80;56.60
63219;DHT22;49320;52.512;13.448;2023-02-26T17:13:16;5.60;56.10
63219;DHT22;49320;52.512;13.448;2023-02-26T17:15:46;5.60;56.90
63219;DHT22;49320;52.512;13.448;2023-02-26T17:18:13;5.60;56.20
63219;DHT22;49320;52.512;13.448;2023-02-26T17:20:40;5.60;56.90
63219;DHT22;49320;52.512;13.448;2023-02-26T17:23:08;5.60;56.70
63219;DHT22;49320;52.512;13.448;2023-02-26T17:25:43;5.60;57.00
63219;DHT22;49320;52.512;13.448;2023-02-26T17:28:18;5.60;57.10
63219;DHT22;49320;52.512;13.448;2023-02-26T17:30:48;5.60;56.60
63219;DHT22;49320;52.512;13.448;2023-02-26T17:33:14;5.50;56.90
63219;DHT22;49320;52.512;13.448;2023-02-26T17:35:42;6.80;57.10
63219;DHT22;49320;52.512;13.448;2023-02-26T17:38:10;5.50;57.40
63219;DHT22;49320;52.512;13.448;2023-02-26T17:40:39;5.60;57.30
63219;DHT22;49320;52.512;13.448;2023-02-26T17:43:08;5.60;57.50
63219;DHT22;49320;52.512;13.448;2023-02-26T17:45:36;5.60;57.00
63219;DHT22;49320;52.512;13.448;2023-02-26T17:50:54;5.60;56.50
63219;DHT22;49320;52.512;13.448;2023-02-26T17:53:23;5.60;56.90
63219;DHT22;49320;52.512;13.448;2023-02-26T17:58:27;5.60;56.80
63219;DHT22;49320;52.512;13.448;2023-02-26T18:00:56;5.60;57.20
63219;DHT22;49320;52.512;13.448;2023-02-26T18:03:23;5.50;57.40
63219;DHT22;49320;52.512;13.448;2023-02-26T18:05:51;5.50;57.50
63219;DHT22;49320;52.512;13.448;2023-02-26T18:08:22;5.50;56.90
63219;DHT22;49320;52.512;13.448;2023-02-26T18:10:51;5.40;57.50
63219;DHT22;49320;52.512;13.448;2023-02-26T18:13:19;5.40;57.50
63219;DHT22;49320;52.512;13.448;2023-02-26T18:15:48;5.30;57.10
63219;DHT22;49320;52.512;13.448;2023-02-26T18:18:16;5.30;57.60
63219;DHT22;49320;52.512;13.448;2023-02-26T18:20:43;5.30;57.20
63219;DHT22;49320;52.512;13.448;2023-02-26T18:23:11;5.20;57.90
63219;DHT22;49320;52.512;13.448;2023-02-26T18:25:40;5.20;57.40
63219;DHT22;49320;52.512;13.448;2023-02-26T18:28:26;5.20;57.40
63219;DHT22;49320;52.512;13.448;2023-02-26T18:30:54;5.20;58.00
63219;DHT22;49320;52.512;13.448;2023-02-26T18:33:23;5.10;58.10
63219;DHT22;49320;52.512;13.448;2023-02-26T18:35:53;5.10;58.30
63219;DHT22;49320;52.512;13.448;2023-02-26T18:38:25;5.10;58.20
63219;DHT22;49320;52.512;13.448;2023-02-26T18:40:53;5.00;58.20
63219;DHT22;49320;52.512;13.448;2023-02-26T18:43:21;5.00;58.30
63219;DHT22;49320;52.512;13.448;2023-02-26T18:45:49;5.00;58.30
63219;DHT22;49320;52.512;13.448;2023-02-26T18:48:19;4.90;57.90
63219;DHT22;49320;52.512;13.448;2023-02-26T18:50:47;4.90;57.80
63219;DHT22;49320;52.512;13.448;2023-02-26T18:53:14;4.80;58.40
63219;DHT22;49320;52.512;13.448;2023-02-26T18:55:43;4.80;57.80